Time;durP1;ratioP1;P1;durP2;ratioP2;P2;SDS_P1;SDS_P2;PMS_P1;PMS_P2;Temp;Humidity;BMP_temperature;BMP_pressure;BME280_temperature;BME280_humidity;BME280_pressure;Samples;Min_cycle;Max_cycle;Signal;HPM_P1;HPM_P2
2023/07/31 00:01:22;;;;;;;13.32;12.20;;;;;;;;;;5098440;27;20106;-72
2023/07/31 00:03:47;;;;;;;14.90;13.70;;;;;;;;;;5101089;27;20024;-71
2023/07/31 00:06:13;;;;;;;17.48;13.40;;;;;;;;;;5099444;28;20034;-72
2023/07/31 00:08:38;;;;;;;13.85;12.55;;;;;;;;;;5102301;28;20412;-74
2023/07/31 00:11:03;;;;;;;13.48;12.07;;;;;;;;;;5098452;28;20036;-72
2023/07/31 00:13:29;;;;;;;12.27;11.07;;;;;;;;;;5100702;28;20039;-71
2023/07/31 00:15:54;;;;;;;12.60;11.50;;;;;;;;;;5097632;28;20076;-76
2023/07/31 00:18:20;;;;;;;13.82;12.57;;;;;;;;;;5098414;28;20447;-72
2023/07/31 00:20:45;;;;;;;14.60;13.07;;;;;;;;;;5100248;28;20078;-72
2023/07/31 00:23:10;;;;;;;16.30;13.40;;;;;;;;;;5100713;28;20031;-72
2023/07/31 00:25:36;;;;;;;16.13;14.70;;;;;;;;;;5099246;28;20046;-71
2023/07/31 00:28:01;;;;;;;17.00;15.25;;;;;;;;;;5097169;28;20039;-71
2023/07/31 00:30:26;;;;;;;19.20;17.45;;;;;;;;;;5097451;28;20038;-71
2023/07/31 00:32:52;;;;;;;18.58;16.88;;;;;;;;;;5098976;28;20078;-74
2023/07/31 00:35:17;;;;;;;19.55;17.95;;;;;;;;;;5097368;28;20062;-73
2023/07/31 00:37:43;;;;;;;20.15;18.30;;;;;;;;;;5101088;28;20030;-76
2023/07/31 00:40:08;;;;;;;21.48;19.52;;;;;;;;;;5099659;28;20502;-73
2023/07/31 00:42:34;;;;;;;22.25;19.80;;;;;;;;;;5100303;28;20088;-75
2023/07/31 00:44:59;;;;;;;21.08;19.48;;;;;;;;;;5099133;28;20062;-72
2023/07/31 00:47:25;;;;;;;20.45;18.70;;;;;;;;;;5098636;28;20035;-72
2023/07/31 00:49:50;;;;;;;20.50;18.58;;;;;;;;;;5097781;28;20416;-72
2023/07/31 00:52:15;;;;;;;19.63;17.77;;;;;;;;;;5099414;28;20023;-72
2023/07/31 00:54:41;;;;;;;21.45;19.15;;;;;;;;;;5097972;28;20454;-74
2023/07/31 00:57:08;;;;;;;20.75;18.65;;;;;;;;;;5095862;28;20031;-73
2023/07/31 00:59:33;;;;;;;22.58;20.45;;;;;;;;;;5098449;28;20118;-74
2023/07/31 01:01:59;;;;;;;21.88;19.63;;;;;;;;;;5096553;28;20110;-71
2023/07/31 01:04:24;;;;;;;23.30;21.00;;;;;;;;;;5096779;28;20020;-72
2023/07/31 01:07:22;;;;;;;22.83;20.88;;;;;;;;;;5098386;28;20090;-72
2023/07/31 01:09:52;;;;;;;23.63;21.40;;;;;;;;;;5039104;28;20037;-72
2023/07/31 01:12:20;;;;;;;23.33;21.02;;;;;;;;;;5039083;28;20156;-75
2023/07/31 01:14:52;;;;;;;24.35;22.15;;;;;;;;;;5039711;28;21712;-74
2023/07/31 01:17:17;;;;;;;25.25;19.63;;;;;;;;;;5039803;28;20120;-73
2023/07/31 01:19:43;;;;;;;24.23;22.02;;;;;;;;;;5039878;28;20116;-72
2023/07/31 01:22:14;;;;;;;24.13;21.77;;;;;;;;;;5039194;28;20068;-74
2023/07/31 01:25:02;;;;;;;23.23;21.30;;;;;;;;;;5039358;28;20519;-74
2023/07/31 01:27:30;;;;;;;24.23;22.03;;;;;;;;;;5028971;28;20041;-72
2023/07/31 01:29:59;;;;;;;25.38;23.05;;;;;;;;;;5038433;28;20032;-74
2023/07/31 01:32:25;;;;;;;25.27;23.08;;;;;;;;;;5039474;28;20045;-74
2023/07/31 01:34:51;;;;;;;22.98;20.65;;;;;;;;;;5039611;28;20119;-73
2023/07/31 01:37:16;;;;;;;25.02;22.42;;;;;;;;;;5037358;28;20069;-72
2023/07/31 01:39:41;;;;;;;23.10;21.00;;;;;;;;;;5039681;28;20045;-72
2023/07/31 01:42:07;;;;;;;23.13;20.98;;;;;;;;;;5039369;28;20071;-72
2023/07/31 01:44:33;;;;;;;23.70;21.25;;;;;;;;;;5049615;28;20050;-74
2023/07/31 01:46:59;;;;;;;22.35;20.33;;;;;;;;;;5097853;28;20152;-73
2023/07/31 01:49:25;;;;;;;23.27;20.60;;;;;;;;;;5099342;28;20028;-75
2023/07/31 01:51:50;;;;;;;21.55;19.73;;;;;;;;;;5100314;28;20031;-73
2023/07/31 01:54:15;;;;;;;21.83;19.80;;;;;;;;;;5097237;28;20024;-72
2023/07/31 01:56:41;;;;;;;21.25;19.35;;;;;;;;;;5097104;28;20130;-73
2023/07/31 01:59:06;;;;;;;20.15;18.45;;;;;;;;;;5100379;28;20385;-72
2023/07/31 02:01:32;;;;;;;20.27;18.17;;;;;;;;;;5097559;28;20462;-72
2023/07/31 02:03:57;;;;;;;22.10;20.10;;;;;;;;;;5097114;28;20119;-73
2023/07/31 02:06:23;;;;;;;24.25;21.95;;;;;;;;;;5096226;28;20783;-72
2023/07/31 02:08:48;;;;;;;22.70;20.75;;;;;;;;;;5096155;28;20034;-75
2023/07/31 02:11:14;;;;;;;23.27;21.15;;;;;;;;;;5105635;27;20042;-75
2023/07/31 02:13:39;;;;;;;25.45;22.83;;;;;;;;;;5098452;28;20111;-72
2023/07/31 02:16:04;;;;;;;26.17;23.17;;;;;;;;;;5100877;28;20395;-76
2023/07/31 02:18:30;;;;;;;24.88;22.30;;;;;;;;;;5099809;28;20910;-72
2023/07/31 02:20:56;;;;;;;24.48;22.02;;;;;;;;;;5099851;28;20055;-72
2023/07/31 02:23:21;;;;;;;23.85;21.58;;;;;;;;;;5103349;28;20431;-72
2023/07/31 02:25:47;;;;;;;25.05;22.67;;;;;;;;;;5103502;28;20115;-73
2023/07/31 02:28:12;;;;;;;25.73;23.17;;;;;;;;;;5099903;28;20152;-72
2023/07/31 02:30:38;;;;;;;25.13;22.90;;;;;;;;;;5102751;28;20445;-73
2023/07/31 02:33:04;;;;;;;26.23;23.55;;;;;;;;;;5101209;28;20164;-73
2023/07/31 02:35:29;;;;;;;25.90;23.38;;;;;;;;;;5098842;28;20085;-72
2023/07/31 02:37:54;;;;;;;25.55;23.10;;;;;;;;;;5100937;28;20351;-72
2023/07/31 02:40:20;;;;;;;25.52;23.15;;;;;;;;;;5101487;28;20023;-73
2023/07/31 02:42:45;;;;;;;24.80;22.35;;;;;;;;;;5100018;28;20495;-73
2023/07/31 02:45:10;;;;;;;22.40;20.23;;;;;;;;;;5104928;28;20387;-73
2023/07/31 02:47:36;;;;;;;21.52;19.40;;;;;;;;;;5101226;28;20654;-77
2023/07/31 02:50:02;;;;;;;19.05;17.40;;;;;;;;;;5102960;28;20099;-73
2023/07/31 02:52:27;;;;;;;17.10;15.65;;;;;;;;;;5100598;27;20035;-73
2023/07/31 02:54:52;;;;;;;16.85;15.25;;;;;;;;;;5100649;28;20027;-72
2023/07/31 02:57:18;;;;;;;18.02;16.45;;;;;;;;;;5101703;28;20047;-74
2023/07/31 02:59:43;;;;;;;18.25;16.55;;;;;;;;;;5100908;28;20279;-71
2023/07/31 03:02:08;;;;;;;17.77;16.17;;;;;;;;;;5100982;27;20109;-73
2023/07/31 03:04:34;;;;;;;17.98;15.98;;;;;;;;;;5100100;28;20024;-71
2023/07/31 03:06:59;;;;;;;16.25;14.95;;;;;;;;;;5100017;28;20020;-72
2023/07/31 03:09:24;;;;;;;16.30;14.90;;;;;;;;;;5097573;28;20028;-73
2023/07/31 03:11:50;;;;;;;15.90;14.48;;;;;;;;;;5101078;28;20062;-75
2023/07/31 03:14:15;;;;;;;15.00;13.70;;;;;;;;;;5102166;27;20062;-73
2023/07/31 03:16:40;;;;;;;16.10;14.48;;;;;;;;;;5099622;28;20051;-73
2023/07/31 03:19:06;;;;;;;15.18;13.80;;;;;;;;;;5098361;28;20059;-74
2023/07/31 03:21:31;;;;;;;13.52;12.35;;;;;;;;;;5100081;28;20039;-74
2023/07/31 03:23:56;;;;;;;14.93;12.10;;;;;;;;;;5101206;28;20073;-73
2023/07/31 03:26:22;;;;;;;13.60;12.32;;;;;;;;;;5101463;28;20442;-72
2023/07/31 03:28:47;;;;;;;12.23;11.27;;;;;;;;;;5098639;28;20489;-72
2023/07/31 03:31:12;;;;;;;11.95;10.93;;;;;;;;;;5099393;28;20111;-72
2023/07/31 03:33:38;;;;;;;11.80;10.63;;;;;;;;;;5101008;28;20059;-72
2023/07/31 03:36:03;;;;;;;11.93;10.93;;;;;;;;;;5101716;28;20221;-71
2023/07/31 03:38:29;;;;;;;10.27;9.38;;;;;;;;;;5098429;28;20455;-74
2023/07/31 03:40:54;;;;;;;10.90;9.98;;;;;;;;;;5101057;28;20024;-72
2023/07/31 03:43:19;;;;;;;10.02;9.13;;;;;;;;;;5100005;28;20043;-72
2023/07/31 03:45:45;;;;;;;9.45;8.55;;;;;;;;;;5098994;28;20088;-76
2023/07/31 03:48:10;;;;;;;11.20;10.20;;;;;;;;;;5100612;27;20062;-72
2023/07/31 03:50:35;;;;;;;11.80;10.82;;;;;;;;;;5101597;28;20023;-71
2023/07/31 03:53:01;;;;;;;14.40;12.63;;;;;;;;;;5099980;28;20019;-72
2023/07/31 03:55:26;;;;;;;15.27;13.02;;;;;;;;;;5101149;28;20506;-71
2023/07/31 03:57:51;;;;;;;13.85;12.50;;;;;;;;;;5096215;28;20437;-71
2023/07/31 04:00:17;;;;;;;13.90;12.77;;;;;;;;;;5096625;28;20398;-71
2023/07/31 04:02:42;;;;;;;12.60;11.57;;;;;;;;;;5099875;28;20024;-72
2023/07/31 04:05:07;;;;;;;12.07;11.02;;;;;;;;;;5103501;28;20040;-71
2023/07/31 04:07:33;;;;;;;13.60;12.20;;;;;;;;;;5100335;28;20293;-73
2023/07/31 04:09:59;;;;;;;13.00;11.80;;;;;;;;;;5099663;28;20023;-72
2023/07/31 04:12:24;;;;;;;12.82;11.68;;;;;;;;;;5098346;28;20398;-74
2023/07/31 04:14:50;;;;;;;12.30;11.10;;;;;;;;;;5102327;28;20463;-71
2023/07/31 04:17:15;;;;;;;16.40;11.07;;;;;;;;;;5101344;28;20449;-72
2023/07/31 04:19:40;;;;;;;11.63;10.63;;;;;;;;;;5101760;28;20387;-71
2023/07/31 04:22:06;;;;;;;11.30;10.10;;;;;;;;;;5099521;28;20549;-71
2023/07/31 04:24:31;;;;;;;10.90;9.98;;;;;;;;;;5099718;28;20035;-71
2023/07/31 04:26:56;;;;;;;11.85;9.05;;;;;;;;;;5099262;28;20028;-72
2023/07/31 04:29:22;;;;;;;9.57;8.77;;;;;;;;;;5098344;28;20031;-73
2023/07/31 04:31:48;;;;;;;10.32;9.00;;;;;;;;;;5097703;28;20334;-72
2023/07/31 04:34:13;;;;;;;11.75;8.77;;;;;;;;;;5099681;28;20042;-73
2023/07/31 04:36:38;;;;;;;14.32;7.80;;;;;;;;;;5101109;28;20102;-73
2023/07/31 04:39:04;;;;;;;9.38;8.52;;;;;;;;;;5097007;28;20067;-72
2023/07/31 04:41:29;;;;;;;9.57;8.68;;;;;;;;;;5098664;28;20019;-73
2023/07/31 04:43:54;;;;;;;9.00;8.20;;;;;;;;;;5100028;28;20473;-72
2023/07/31 04:46:20;;;;;;;11.88;8.32;;;;;;;;;;5099921;28;20111;-71
2023/07/31 04:48:45;;;;;;;9.23;8.43;;;;;;;;;;5096383;28;20046;-70
2023/07/31 04:51:12;;;;;;;9.10;8.15;;;;;;;;;;5099210;28;20073;-74
2023/07/31 04:53:37;;;;;;;9.23;8.10;;;;;;;;;;5099038;28;20027;-71
2023/07/31 04:56:02;;;;;;;10.05;7.45;;;;;;;;;;5100023;28;20034;-72
2023/07/31 04:58:28;;;;;;;9.52;7.30;;;;;;;;;;5095876;28;20024;-73
2023/07/31 05:00:53;;;;;;;8.85;8.00;;;;;;;;;;5099754;28;20022;-70
2023/07/31 05:03:19;;;;;;;8.70;7.47;;;;;;;;;;5097333;28;20019;-71
2023/07/31 05:05:44;;;;;;;8.80;8.00;;;;;;;;;;5097901;28;20053;-73
2023/07/31 05:08:09;;;;;;;8.80;7.78;;;;;;;;;;5098142;28;20039;-71
2023/07/31 05:10:35;;;;;;;10.95;8.10;;;;;;;;;;5099750;28;20127;-70
2023/07/31 05:13:00;;;;;;;8.15;7.45;;;;;;;;;;5098746;28;20382;-71
2023/07/31 05:15:25;;;;;;;8.25;7.45;;;;;;;;;;5103376;28;20326;-71
2023/07/31 05:17:51;;;;;;;8.60;7.25;;;;;;;;;;5099903;28;20131;-74
2023/07/31 05:20:16;;;;;;;7.45;6.63;;;;;;;;;;5101112;28;20023;-72
2023/07/31 05:22:42;;;;;;;7.07;6.38;;;;;;;;;;5097877;28;20089;-74
2023/07/31 05:25:07;;;;;;;7.30;6.63;;;;;;;;;;5095384;28;20110;-72
2023/07/31 05:27:32;;;;;;;7.75;6.95;;;;;;;;;;5100483;28;20073;-74
2023/07/31 05:29:58;;;;;;;7.00;6.40;;;;;;;;;;5098879;28;20024;-72
2023/07/31 05:32:23;;;;;;;7.85;7.07;;;;;;;;;;5097246;28;20427;-71
2023/07/31 05:34:51;;;;;;;7.63;6.75;;;;;;;;;;5096916;28;20024;-71
2023/07/31 05:37:16;;;;;;;7.35;6.75;;;;;;;;;;5097090;28;20019;-72
2023/07/31 05:39:41;;;;;;;9.55;6.20;;;;;;;;;;5100024;28;20074;-72
2023/07/31 05:42:07;;;;;;;7.18;6.53;;;;;;;;;;5097452;28;20119;-72
2023/07/31 05:44:32;;;;;;;9.38;6.53;;;;;;;;;;5098515;28;20035;-71
2023/07/31 05:46:57;;;;;;;7.95;6.80;;;;;;;;;;5098135;28;20031;-71
2023/07/31 05:49:23;;;;;;;8.95;6.35;;;;;;;;;;5086507;28;20059;-71
2023/07/31 05:51:48;;;;;;;7.43;6.85;;;;;;;;;;5079447;28;20422;-72
2023/07/31 05:54:13;;;;;;;7.35;6.72;;;;;;;;;;5091497;28;20406;-72
2023/07/31 05:56:39;;;;;;;6.72;6.10;;;;;;;;;;5096618;28;20459;-74
2023/07/31 05:59:04;;;;;;;7.28;6.50;;;;;;;;;;5095800;28;20092;-73
2023/07/31 06:01:30;;;;;;;6.43;5.82;;;;;;;;;;5098087;28;20465;-74
2023/07/31 06:03:55;;;;;;;6.05;5.55;;;;;;;;;;5095918;28;20110;-71
2023/07/31 06:06:20;;;;;;;6.93;5.25;;;;;;;;;;5099135;28;20419;-72
2023/07/31 06:08:46;;;;;;;6.00;5.38;;;;;;;;;;5096218;28;20391;-71
2023/07/31 06:11:11;;;;;;;6.35;4.50;;;;;;;;;;5097531;28;20439;-73
2023/07/31 06:13:37;;;;;;;5.53;5.03;;;;;;;;;;5100120;28;20038;-71
2023/07/31 06:16:05;;;;;;;5.40;4.95;;;;;;;;;;5092842;28;20032;-72
2023/07/31 06:18:31;;;;;;;5.93;5.28;;;;;;;;;;5097097;28;20099;-71
2023/07/31 06:20:56;;;;;;;5.50;5.00;;;;;;;;;;5099841;28;20031;-71
2023/07/31 06:23:22;;;;;;;5.15;4.60;;;;;;;;;;5095292;28;20369;-72
2023/07/31 06:25:47;;;;;;;5.40;4.90;;;;;;;;;;5097591;28;20081;-71
2023/07/31 06:28:12;;;;;;;4.35;3.67;;;;;;;;;;5096669;28;20157;-72
2023/07/31 06:30:37;;;;;;;4.18;3.88;;;;;;;;;;5098440;28;20116;-71
2023/07/31 06:33:03;;;;;;;4.35;3.63;;;;;;;;;;5096809;28;20416;-74
2023/07/31 06:35:28;;;;;;;3.80;3.50;;;;;;;;;;5098087;28;20055;-72
2023/07/31 06:37:53;;;;;;;4.72;3.60;;;;;;;;;;5096199;28;20177;-71
2023/07/31 06:40:19;;;;;;;3.70;3.20;;;;;;;;;;5097185;28;20041;-73
2023/07/31 06:42:44;;;;;;;4.40;4.00;;;;;;;;;;5097312;28;20031;-72
2023/07/31 06:45:10;;;;;;;3.88;3.58;;;;;;;;;;5099929;28;20028;-71
2023/07/31 06:47:35;;;;;;;3.85;3.55;;;;;;;;;;5096017;28;20020;-72
2023/07/31 06:50:01;;;;;;;4.07;3.78;;;;;;;;;;5094198;28;20595;-73
2023/07/31 06:52:26;;;;;;;4.38;3.45;;;;;;;;;;5096644;28;20692;-71
2023/07/31 06:55:17;;;;;;;4.50;4.10;;;;;;;;;;5097607;28;20023;-75
2023/07/31 06:57:42;;;;;;;4.43;4.03;;;;;;;;;;5103158;28;20027;-72
2023/07/31 07:00:08;;;;;;;4.93;4.00;;;;;;;;;;5101736;28;21101;-73
2023/07/31 07:02:33;;;;;;;4.50;3.63;;;;;;;;;;5099369;28;20046;-72
2023/07/31 07:04:59;;;;;;;4.63;4.05;;;;;;;;;;5101432;28;20015;-75
2023/07/31 07:07:24;;;;;;;3.40;3.13;;;;;;;;;;5098460;28;20032;-73
2023/07/31 07:09:49;;;;;;;4.10;3.80;;;;;;;;;;5100716;28;20024;-72
2023/07/31 07:12:15;;;;;;;4.00;3.70;;;;;;;;;;5101018;28;20030;-71
2023/07/31 07:14:40;;;;;;;4.95;3.63;;;;;;;;;;5099967;28;20055;-72
2023/07/31 07:17:06;;;;;;;4.13;3.83;;;;;;;;;;5104316;28;20071;-73
2023/07/31 07:19:31;;;;;;;3.97;3.67;;;;;;;;;;5097467;28;20026;-73
2023/07/31 07:21:56;;;;;;;4.40;4.00;;;;;;;;;;5101336;28;20028;-72
2023/07/31 07:24:22;;;;;;;4.68;4.28;;;;;;;;;;5103457;28;20019;-74
2023/07/31 07:26:47;;;;;;;4.00;3.70;;;;;;;;;;5101088;27;20050;-72
2023/07/31 07:29:12;;;;;;;4.32;3.92;;;;;;;;;;5103085;28;20034;-72
2023/07/31 07:31:38;;;;;;;3.80;3.50;;;;;;;;;;5099530;28;20027;-71
2023/07/31 07:34:03;;;;;;;3.80;3.50;;;;;;;;;;5097579;28;20076;-72
2023/07/31 07:36:29;;;;;;;4.38;4.07;;;;;;;;;;5099828;28;20031;-71
2023/07/31 07:38:54;;;;;;;4.60;4.20;;;;;;;;;;5100057;28;20092;-72
2023/07/31 07:41:19;;;;;;;5.10;4.70;;;;;;;;;;5098877;28;20085;-73
2023/07/31 07:43:45;;;;;;;5.40;5.00;;;;;;;;;;5096387;28;20031;-73
2023/07/31 07:46:10;;;;;;;6.55;5.95;;;;;;;;;;5100667;28;20031;-73
2023/07/31 07:48:35;;;;;;;7.35;6.65;;;;;;;;;;5098103;28;21124;-72
2023/07/31 07:51:01;;;;;;;7.18;6.60;;;;;;;;;;5099678;28;20147;-75
2023/07/31 07:53:26;;;;;;;7.30;6.75;;;;;;;;;;5099195;28;20455;-72
2023/07/31 07:55:51;;;;;;;7.50;6.90;;;;;;;;;;5098875;28;20483;-72
2023/07/31 07:58:16;;;;;;;8.38;7.65;;;;;;;;;;5099506;28;20391;-72
2023/07/31 08:00:48;;;;;;;9.15;8.15;;;;;;;;;;5100368;28;20094;-73
2023/07/31 08:03:13;;;;;;;9.00;8.20;;;;;;;;;;5098390;27;20027;-72
2023/07/31 08:05:38;;;;;;;10.68;9.60;;;;;;;;;;5098379;28;20043;-74
2023/07/31 08:08:03;;;;;;;10.13;9.23;;;;;;;;;;5099892;28;20036;-72
2023/07/31 08:10:29;;;;;;;9.63;8.93;;;;;;;;;;5097805;28;20072;-74
2023/07/31 08:12:54;;;;;;;10.23;9.32;;;;;;;;;;5100004;28;20035;-73
2023/07/31 08:15:19;;;;;;;10.82;9.82;;;;;;;;;;5100648;28;20092;-72
2023/07/31 08:17:45;;;;;;;9.88;8.88;;;;;;;;;;5098231;28;20027;-75
2023/07/31 08:20:10;;;;;;;10.23;9.43;;;;;;;;;;5101928;28;20036;-72
2023/07/31 08:22:36;;;;;;;10.23;9.43;;;;;;;;;;5097644;28;20450;-72
2023/07/31 08:25:01;;;;;;;11.20;10.30;;;;;;;;;;5100725;28;20055;-71
2023/07/31 08:27:26;;;;;;;13.23;12.23;;;;;;;;;;5103274;28;20038;-71
2023/07/31 08:29:52;;;;;;;17.30;15.90;;;;;;;;;;5100187;28;20031;-72
2023/07/31 08:32:17;;;;;;;19.20;17.50;;;;;;;;;;5100549;28;20043;-73
2023/07/31 08:34:43;;;;;;;19.70;18.15;;;;;;;;;;5102192;27;20023;-75
2023/07/31 08:37:08;;;;;;;20.33;18.63;;;;;;;;;;5096196;28;20032;-72
2023/07/31 08:39:33;;;;;;;19.45;17.95;;;;;;;;;;5099971;28;20035;-72
2023/07/31 08:41:59;;;;;;;18.25;16.52;;;;;;;;;;5098558;28;20044;-74
2023/07/31 08:44:25;;;;;;;16.67;15.38;;;;;;;;;;5095741;28;20085;-72
2023/07/31 08:46:51;;;;;;;15.55;14.35;;;;;;;;;;5098731;28;20033;-72
2023/07/31 08:49:17;;;;;;;15.88;14.68;;;;;;;;;;5102432;28;20063;-71
2023/07/31 08:51:43;;;;;;;15.40;14.20;;;;;;;;;;5100603;28;20024;-75
2023/07/31 08:54:08;;;;;;;15.13;13.93;;;;;;;;;;5101237;28;20347;-72
2023/07/31 08:56:34;;;;;;;13.45;12.45;;;;;;;;;;5101447;28;20020;-74
2023/07/31 08:59:01;;;;;;;12.80;11.88;;;;;;;;;;5098044;28;20088;-72
2023/07/31 09:01:29;;;;;;;11.68;10.68;;;;;;;;;;5102134;28;20023;-71
2023/07/31 09:03:55;;;;;;;12.20;11.30;;;;;;;;;;5097959;28;20039;-72
2023/07/31 09:06:20;;;;;;;11.30;10.40;;;;;;;;;;5099565;28;20024;-73
2023/07/31 09:08:46;;;;;;;10.32;9.52;;;;;;;;;;5099137;28;20027;-72
2023/07/31 09:11:12;;;;;;;10.32;9.43;;;;;;;;;;5099641;28;20024;-72
2023/07/31 09:13:39;;;;;;;9.43;8.73;;;;;;;;;;5100334;28;20092;-72
2023/07/31 09:16:05;;;;;;;8.90;8.23;;;;;;;;;;5099889;28;20031;-75
2023/07/31 09:18:30;;;;;;;9.30;8.50;;;;;;;;;;5100799;28;20027;-74
2023/07/31 09:21:05;;;;;;;9.63;8.93;;;;;;;;;;5101318;28;20031;-73
2023/07/31 09:23:41;;;;;;;9.38;8.68;;;;;;;;;;5098275;28;20454;-73
2023/07/31 09:26:06;;;;;;;9.77;9.07;;;;;;;;;;5097299;28;20114;-72
2023/07/31 09:28:31;;;;;;;9.80;9.07;;;;;;;;;;5096678;27;20099;-72
2023/07/31 09:30:56;;;;;;;9.30;8.60;;;;;;;;;;5099188;28;20086;-76
2023/07/31 09:33:22;;;;;;;8.43;7.78;;;;;;;;;;5095932;28;20023;-73
2023/07/31 09:35:50;;;;;;;8.90;8.18;;;;;;;;;;5099224;28;20031;-72
2023/07/31 09:38:16;;;;;;;8.50;7.90;;;;;;;;;;5095477;28;20062;-73
2023/07/31 09:40:43;;;;;;;8.30;7.70;;;;;;;;;;5098704;28;20031;-73
2023/07/31 09:43:10;;;;;;;7.22;6.72;;;;;;;;;;5098176;28;20398;-73
2023/07/31 09:45:37;;;;;;;7.53;7.03;;;;;;;;;;5098371;28;20039;-76
2023/07/31 09:48:03;;;;;;;7.63;7.07;;;;;;;;;;5096653;28;20027;-72
2023/07/31 09:50:29;;;;;;;6.32;5.93;;;;;;;;;;5097571;28;20355;-73
2023/07/31 09:52:55;;;;;;;6.50;5.80;;;;;;;;;;5101597;28;20031;-73
2023/07/31 09:55:20;;;;;;;7.38;6.63;;;;;;;;;;5099651;28;20114;-72
2023/07/31 09:57:46;;;;;;;6.93;6.32;;;;;;;;;;5096107;28;20066;-73
2023/07/31 10:00:12;;;;;;;6.88;6.38;;;;;;;;;;5097604;28;20023;-76
2023/07/31 10:02:38;;;;;;;7.00;6.50;;;;;;;;;;5095642;28;20354;-73
2023/07/31 10:05:04;;;;;;;6.57;6.07;;;;;;;;;;5097051;28;20032;-71
2023/07/31 10:07:31;;;;;;;6.93;6.32;;;;;;;;;;5095258;28;20039;-72
2023/07/31 10:10:00;;;;;;;6.10;5.60;;;;;;;;;;5095333;28;20092;-71
2023/07/31 10:12:25;;;;;;;;;;;;;;;;;;5095666;28;20046;-74
2023/07/31 10:14:52;;;;;;;9.23;5.63;;;;;;;;;;5097334;28;19912;-72
2023/07/31 10:17:18;;;;;;;5.95;5.45;;;;;;;;;;5101127;28;20028;-74
2023/07/31 10:19:44;;;;;;;4.78;4.47;;;;;;;;;;5099761;28;20173;-73
2023/07/31 10:22:09;;;;;;;4.03;3.55;;;;;;;;;;5100594;28;20043;-71
2023/07/31 10:24:36;;;;;;;3.45;3.22;;;;;;;;;;5097420;28;20016;-72
2023/07/31 10:27:02;;;;;;;2.88;2.67;;;;;;;;;;5097161;28;20028;-72
2023/07/31 10:29:29;;;;;;;2.80;2.33;;;;;;;;;;5096272;28;20020;-73
2023/07/31 10:31:56;;;;;;;4.05;3.53;;;;;;;;;;5101885;28;20538;-73
2023/07/31 10:34:21;;;;;;;5.22;4.70;;;;;;;;;;5099232;28;20032;-72
2023/07/31 10:36:46;;;;;;;6.30;5.80;;;;;;;;;;5102803;28;20037;-72
2023/07/31 10:39:30;;;;;;;5.55;5.00;;;;;;;;;;5102789;28;20242;-73
2023/07/31 10:41:56;;;;;;;5.05;4.70;;;;;;;;;;5101821;28;20590;-76
2023/07/31 10:44:21;;;;;;;5.15;4.75;;;;;;;;;;5102704;28;20027;-75
2023/07/31 10:46:46;;;;;;;5.15;4.68;;;;;;;;;;5100114;28;20038;-74
2023/07/31 10:49:20;;;;;;;5.05;4.63;;;;;;;;;;5102748;28;20093;-76
2023/07/31 10:51:47;;;;;;;6.20;4.18;;;;;;;;;;5101768;28;20028;-73
2023/07/31 10:54:14;;;;;;;4.60;4.20;;;;;;;;;;5101688;28;20023;-73
2023/07/31 10:56:39;;;;;;;4.10;3.75;;;;;;;;;;5101176;28;20354;-73
2023/07/31 10:59:06;;;;;;;4.55;3.10;;;;;;;;;;5101028;28;20032;-72
2023/07/31 11:01:57;;;;;;;3.58;3.38;;;;;;;;;;5104660;28;20030;-73
2023/07/31 11:04:26;;;;;;;3.50;3.20;;;;;;;;;;5098481;27;20040;-74
2023/07/31 11:06:56;;;;;;;3.95;3.38;;;;;;;;;;5095874;28;20455;-73
2023/07/31 11:09:21;;;;;;;3.92;3.40;;;;;;;;;;5100302;28;20847;-72
2023/07/31 11:11:48;;;;;;;3.50;3.20;;;;;;;;;;5101617;28;20102;-71
2023/07/31 11:14:13;;;;;;;3.33;3.13;;;;;;;;;;5099038;28;20027;-75
2023/07/31 11:16:41;;;;;;;4.88;3.13;;;;;;;;;;5101433;28;20422;-74
2023/07/31 11:19:08;;;;;;;3.33;3.03;;;;;;;;;;5102580;28;20015;-72
2023/07/31 11:21:33;;;;;;;3.03;2.83;;;;;;;;;;5101997;28;20019;-73
2023/07/31 11:23:59;;;;;;;3.38;3.10;;;;;;;;;;5101808;28;20027;-74
2023/07/31 11:26:24;;;;;;;3.22;2.92;;;;;;;;;;5097647;28;20032;-72
2023/07/31 11:28:50;;;;;;;2.83;2.63;;;;;;;;;;5100067;28;20023;-72
2023/07/31 11:31:15;;;;;;;2.83;2.63;;;;;;;;;;5097880;28;20101;-73
2023/07/31 11:33:41;;;;;;;3.15;2.50;;;;;;;;;;5101456;28;20039;-73
2023/07/31 11:36:06;;;;;;;2.78;2.58;;;;;;;;;;5101062;27;20122;-74
2023/07/31 11:38:32;;;;;;;2.72;2.53;;;;;;;;;;5101718;28;20050;-75
2023/07/31 11:40:59;;;;;;;3.45;2.30;;;;;;;;;;5102069;28;20033;-73
2023/07/31 11:43:24;;;;;;;2.53;2.33;;;;;;;;;;5095748;28;20023;-74
2023/07/31 11:45:51;;;;;;;3.05;2.10;;;;;;;;;;5099218;28;20097;-72
2023/07/31 11:48:27;;;;;;;2.40;2.20;;;;;;;;;;5102576;28;20031;-71
2023/07/31 11:50:53;;;;;;;2.50;2.30;;;;;;;;;;5102470;28;20064;-71
2023/07/31 11:53:20;;;;;;;4.63;2.00;;;;;;;;;;5101635;28;20023;-72
2023/07/31 11:55:46;;;;;;;2.17;1.98;;;;;;;;;;5098321;28;20031;-72
2023/07/31 11:58:13;;;;;;;2.20;2.00;;;;;;;;;;5098410;28;20088;-74
2023/07/31 12:00:38;;;;;;;1.65;1.55;;;;;;;;;;5099363;28;20027;-73
2023/07/31 12:03:04;;;;;;;2.20;2.00;;;;;;;;;;5101803;27;20046;-72
2023/07/31 12:05:29;;;;;;;2.13;2.03;;;;;;;;;;5102108;28;20035;-73
2023/07/31 12:07:55;;;;;;;4.25;2.10;;;;;;;;;;5100393;28;20028;-73
2023/07/31 12:10:24;;;;;;;2.50;2.05;;;;;;;;;;5102716;28;20028;-71
2023/07/31 12:12:49;;;;;;;;;;;;;;;;;;5099216;28;20046;-73
2023/07/31 12:15:15;;;;;;;2.30;2.10;;;;;;;;;;5098999;28;20327;-74
2023/07/31 12:17:41;;;;;;;2.00;1.90;;;;;;;;;;5098991;28;20027;-74
2023/07/31 12:20:07;;;;;;;1.80;1.70;;;;;;;;;;5101127;28;20054;-73
2023/07/31 12:22:32;;;;;;;2.08;1.98;;;;;;;;;;5101509;28;20123;-73
2023/07/31 12:24:57;;;;;;;1.95;1.80;;;;;;;;;;5100985;28;20107;-71
2023/07/31 12:27:25;;;;;;;2.03;1.83;;;;;;;;;;5102935;28;20107;-72
2023/07/31 12:29:50;;;;;;;2.88;1.90;;;;;;;;;;5100112;28;20055;-73
2023/07/31 12:32:25;;;;;;;2.67;1.90;;;;;;;;;;5099672;28;21276;-74
2023/07/31 12:34:50;;;;;;;1.73;1.63;;;;;;;;;;5099440;28;20024;-73
2023/07/31 12:37:16;;;;;;;2.45;1.88;;;;;;;;;;5099825;28;20024;-74
2023/07/31 12:39:41;;;;;;;2.03;1.90;;;;;;;;;;5100498;28;20054;-73
2023/07/31 12:42:06;;;;;;;1.80;1.70;;;;;;;;;;5099110;28;20059;-72
2023/07/31 12:44:32;;;;;;;2.55;1.88;;;;;;;;;;5096033;28;20051;-75
2023/07/31 12:46:57;;;;;;;3.22;1.73;;;;;;;;;;5098161;28;20038;-72
2023/07/31 12:49:23;;;;;;;2.00;1.77;;;;;;;;;;5098582;28;20027;-71
2023/07/31 12:51:48;;;;;;;2.25;1.85;;;;;;;;;;5099796;28;20091;-72
2023/07/31 12:54:13;;;;;;;1.83;1.65;;;;;;;;;;5101246;28;20019;-74
2023/07/31 12:56:39;;;;;;;1.92;1.83;;;;;;;;;;5098380;28;20023;-72
2023/07/31 12:59:05;;;;;;;1.95;1.83;;;;;;;;;;5097560;28;20076;-73
2023/07/31 13:01:31;;;;;;;1.60;1.50;;;;;;;;;;5099030;28;20035;-74
2023/07/31 13:03:57;;;;;;;1.95;1.83;;;;;;;;;;5099193;28;20032;-76
2023/07/31 13:06:22;;;;;;;1.70;1.60;;;;;;;;;;5099450;28;20032;-72
2023/07/31 13:08:47;;;;;;;1.92;1.80;;;;;;;;;;5096095;28;20127;-72
2023/07/31 13:11:13;;;;;;;2.05;1.85;;;;;;;;;;5097202;28;20055;-73
2023/07/31 13:13:38;;;;;;;3.20;1.90;;;;;;;;;;5098214;28;20012;-73
2023/07/31 13:16:04;;;;;;;3.55;1.90;;;;;;;;;;5098923;28;20097;-73
2023/07/31 13:18:29;;;;;;;1.88;1.77;;;;;;;;;;5097788;28;20020;-71
2023/07/31 13:20:55;;;;;;;3.28;1.67;;;;;;;;;;5099076;28;20475;-73
2023/07/31 13:23:20;;;;;;;2.20;2.00;;;;;;;;;;5096762;28;20028;-73
2023/07/31 13:25:46;;;;;;;1.83;1.70;;;;;;;;;;5098681;28;20411;-73
2023/07/31 13:28:11;;;;;;;1.60;1.50;;;;;;;;;;5099479;27;20028;-73
2023/07/31 13:30:36;;;;;;;2.90;1.70;;;;;;;;;;5100077;28;20024;-73
2023/07/31 13:33:02;;;;;;;2.05;1.50;;;;;;;;;;5098134;28;20027;-73
2023/07/31 13:35:27;;;;;;;2.00;1.80;;;;;;;;;;5095293;28;20035;-72
2023/07/31 13:37:54;;;;;;;2.17;1.70;;;;;;;;;;5097274;28;20020;-72
2023/07/31 13:40:19;;;;;;;2.97;1.75;;;;;;;;;;5100636;28;20085;-73
2023/07/31 13:42:45;;;;;;;1.80;1.70;;;;;;;;;;5097389;28;20031;-72
2023/07/31 13:45:11;;;;;;;1.90;1.50;;;;;;;;;;5095610;28;20367;-73
2023/07/31 13:47:37;;;;;;;3.78;1.58;;;;;;;;;;5099628;28;20027;-71
2023/07/31 13:50:02;;;;;;;1.73;1.63;;;;;;;;;;5098292;28;20438;-73
2023/07/31 13:52:29;;;;;;;2.55;1.70;;;;;;;;;;5099940;28;20024;-73
2023/07/31 13:54:54;;;;;;;1.80;1.70;;;;;;;;;;5099586;28;20051;-75
2023/07/31 13:57:19;;;;;;;2.95;1.77;;;;;;;;;;5097911;28;20042;-75
2023/07/31 13:59:45;;;;;;;1.98;1.40;;;;;;;;;;5098502;28;20402;-74
2023/07/31 14:02:10;;;;;;;1.60;1.40;;;;;;;;;;5100013;28;20059;-73
2023/07/31 14:04:37;;;;;;;1.50;1.40;;;;;;;;;;5098682;28;20454;-73
2023/07/31 14:07:03;;;;;;;1.73;1.50;;;;;;;;;;5101061;28;20031;-71
2023/07/31 14:09:28;;;;;;;1.77;1.52;;;;;;;;;;5104595;28;20035;-74
2023/07/31 14:11:53;;;;;;;2.17;1.92;;;;;;;;;;5102588;28;20034;-75
2023/07/31 14:14:19;;;;;;;1.63;1.52;;;;;;;;;;5098441;28;20089;-73
2023/07/31 14:16:44;;;;;;;2.00;1.80;;;;;;;;;;5098945;28;20107;-75
2023/07/31 14:19:10;;;;;;;1.70;1.50;;;;;;;;;;5105998;28;20031;-74
2023/07/31 14:21:35;;;;;;;1.55;1.45;;;;;;;;;;5102922;28;20092;-71
2023/07/31 14:24:01;;;;;;;1.67;1.58;;;;;;;;;;5102188;28;20094;-73
2023/07/31 14:26:26;;;;;;;1.60;1.50;;;;;;;;;;5103019;28;20067;-72